sensor_id;sensor_type;location;lat;lon;timestamp;pressure;altitude;pressure_sealevel;temperature;humidity
45941;BME280;31858;46.008;8.978;2023-04-01T00:00:23;93449.72;;;6.07;100.00
45941;BME280;31858;46.008;8.978;2023-04-01T00:10:25;93405.19;;;6.16;100.00
45941;BME280;31858;46.008;8.978;2023-04-01T00:20:28;93401.34;;;6.06;100.00
45941;BME280;31858;46.008;8.978;2023-04-01T00:30:30;93413.41;;;6.00;100.00
45941;BME280;31858;46.008;8.978;2023-04-01T00:40:34;93407.41;;;6.07;100.00
45941;BME280;31858;46.008;8.978;2023-04-01T00:50:37;93400.03;;;5.82;100.00
45941;BME280;31858;46.008;8.978;2023-04-01T01:00:42;93389.41;;;5.72;100.00
45941;BME280;31858;46.008;8.978;2023-04-01T01:10:45;93363.38;;;5.77;100.00
45941;BME280;31858;46.008;8.978;2023-04-01T01:21:17;93372.88;;;5.85;100.00
45941;BME280;31858;46.008;8.978;2023-04-01T01:31:33;93373.25;;;5.87;100.00
45941;BME280;31858;46.008;8.978;2023-04-01T01:41:41;93377.84;;;5.91;100.00
45941;BME280;31858;46.008;8.978;2023-04-01T01:51:44;93363.72;;;5.72;100.00
45941;BME280;31858;46.008;8.978;2023-04-01T02:01:49;93376.53;;;5.67;100.00
45941;BME280;31858;46.008;8.978;2023-04-01T02:11:53;93347.47;;;5.67;100.00
45941;BME280;31858;46.008;8.978;2023-04-01T02:21:59;93363.28;;;5.60;100.00
45941;BME280;31858;46.008;8.978;2023-04-01T02:32:02;93369.72;;;5.66;100.00
45941;BME280;31858;46.008;8.978;2023-04-01T02:42:06;93368.22;;;5.68;100.00
45941;BME280;31858;46.008;8.978;2023-04-01T02:52:07;93372.69;;;5.57;100.00
45941;BME280;31858;46.008;8.978;2023-04-01T03:02:10;93367.00;;;5.51;100.00
45941;BME280;31858;46.008;8.978;2023-04-01T03:12:12;93383.94;;;5.47;100.00
45941;BME280;31858;46.008;8.978;2023-04-01T03:22:15;93403.28;;;5.58;100.00
45941;BME280;31858;46.008;8.978;2023-04-01T03:32:16;93420.97;;;5.54;100.00
45941;BME280;31858;46.008;8.978;2023-04-01T03:42:19;93437.16;;;5.49;100.00
45941;BME280;31858;46.008;8.978;2023-04-01T03:52:21;93422.22;;;5.23;100.00
45941;BME280;31858;46.008;8.978;2023-04-01T04:02:24;93423.59;;;5.50;100.00
45941;BME280;31858;46.008;8.978;2023-04-01T04:12:25;93418.19;;;5.36;100.00
45941;BME280;31858;46.008;8.978;2023-04-01T04:22:28;93415.16;;;5.34;100.00
45941;BME280;31858;46.008;8.978;2023-04-01T04:32:30;93426.03;;;5.25;100.00
45941;BME280;31858;46.008;8.978;2023-04-01T04:42:33;93436.19;;;5.23;100.00
45941;BME280;31858;46.008;8.978;2023-04-01T04:52:34;93437.38;;;5.30;100.00
45941;BME280;31858;46.008;8.978;2023-04-01T05:02:37;93442.34;;;5.35;100.00
45941;BME280;31858;46.008;8.978;2023-04-01T05:12:39;93451.81;;;5.39;100.00
45941;BME280;31858;46.008;8.978;2023-04-01T05:22:42;93437.84;;;5.39;100.00
45941;BME280;31858;46.008;8.978;2023-04-01T05:32:43;93447.28;;;5.40;100.00
45941;BME280;31858;46.008;8.978;2023-04-01T05:42:46;93464.00;;;5.54;100.00
45941;BME280;31858;46.008;8.978;2023-04-01T05:52:48;93460.84;;;5.82;100.00
45941;BME280;31858;46.008;8.978;2023-04-01T06:02:51;93465.03;;;5.87;100.00
45941;BME280;31858;46.008;8.978;2023-04-01T06:13:00;93461.63;;;5.86;100.00
45941;BME280;31858;46.008;8.978;2023-04-01T06:23:36;93472.22;;;5.86;100.00
45941;BME280;31858;46.008;8.978;2023-04-01T06:33:42;93475.97;;;5.85;100.00
45941;BME280;31858;46.008;8.978;2023-04-01T06:43:57;93481.22;;;5.82;100.00
45941;BME280;31858;46.008;8.978;2023-04-01T06:54:03;93474.47;;;5.88;100.00
45941;BME280;31858;46.008;8.978;2023-04-01T07:04:11;93489.28;;;5.93;100.00
45941;BME280;31858;46.008;8.978;2023-04-01T07:14:20;93479.91;;;6.02;100.00
45941;BME280;31858;46.008;8.978;2023-04-01T07:24:26;93482.56;;;6.06;100.00
45941;BME280;31858;46.008;8.978;2023-04-01T07:34:31;93474.03;;;6.27;100.00
45941;BME280;31858;46.008;8.978;2023-04-01T07:44:46;93489.88;;;6.23;100.00
45941;BME280;31858;46.008;8.978;2023-04-01T07:54:57;93482.84;;;6.55;100.00
45941;BME280;31858;46.008;8.978;2023-04-01T08:05:14;93484.53;;;6.96;100.00
45941;BME280;31858;46.008;8.978;2023-04-01T08:15:21;93496.28;;;6.98;100.00
45941;BME280;31858;46.008;8.978;2023-04-01T08:25:29;93490.34;;;7.47;100.00
45941;BME280;31858;46.008;8.978;2023-04-01T08:35:36;93494.50;;;7.41;100.00
45941;BME280;31858;46.008;8.978;2023-04-01T08:45:48;93486.59;;;7.66;100.00
45941;BME280;31858;46.008;8.978;2023-04-01T08:56:06;93490.38;;;7.94;100.00
45941;BME280;31858;46.008;8.978;2023-04-01T09:06:25;93494.16;;;8.10;100.00
45941;BME280;31858;46.008;8.978;2023-04-01T09:16:45;93493.41;;;8.35;100.00
45941;BME280;31858;46.008;8.978;2023-04-01T09:27:05;93488.75;;;8.85;100.00
45941;BME280;31858;46.008;8.978;2023-04-01T09:37:19;93485.59;;;9.11;100.00
45941;BME280;31858;46.008;8.978;2023-04-01T09:47:33;93504.56;;;9.13;100.00
45941;BME280;31858;46.008;8.978;2023-04-01T09:58:23;93493.50;;;9.26;100.00
45941;BME280;31858;46.008;8.978;2023-04-01T10:08:46;93487.72;;;9.38;100.00
45941;BME280;31858;46.008;8.978;2023-04-01T10:19:11;93497.91;;;9.54;100.00
45941;BME280;31858;46.008;8.978;2023-04-01T10:29:49;93490.34;;;10.04;100.00
45941;BME280;31858;46.008;8.978;2023-04-01T10:40:17;93492.00;;;10.73;100.00
45941;BME280;31858;46.008;8.978;2023-04-01T10:50:42;93489.31;;;11.41;74.07
45941;BME280;31858;46.008;8.978;2023-04-01T11:22:25;93495.34;;;11.72;55.71
45941;BME280;31858;46.008;8.978;2023-04-01T11:32:41;93494.66;;;11.95;57.46
45941;BME280;31858;46.008;8.978;2023-04-01T11:42:51;93493.97;;;12.14;57.42
45941;BME280;31858;46.008;8.978;2023-04-01T11:52:59;93489.75;;;12.40;55.34
45941;BME280;31858;46.008;8.978;2023-04-01T12:03:17;93488.00;;;12.30;52.56
45941;BME280;31858;46.008;8.978;2023-04-01T12:13:33;93474.84;;;12.62;59.73
45941;BME280;31858;46.008;8.978;2023-04-01T12:44:57;93471.44;;;13.21;44.96
45941;BME280;31858;46.008;8.978;2023-04-01T12:55:24;93460.81;;;13.18;41.67
45941;BME280;31858;46.008;8.978;2023-04-01T13:05:43;93446.84;;;13.46;45.99
45941;BME280;31858;46.008;8.978;2023-04-01T13:15:52;93442.47;;;14.21;43.63
45941;BME280;31858;46.008;8.978;2023-04-01T13:26:07;93422.31;;;14.90;41.68
45941;BME280;31858;46.008;8.978;2023-04-01T13:36:19;93423.38;;;14.93;40.54
45941;BME280;31858;46.008;8.978;2023-04-01T13:46:43;93414.53;;;14.51;36.92
45941;BME280;31858;46.008;8.978;2023-04-01T13:56:59;93419.19;;;14.18;37.25
45941;BME280;31858;46.008;8.978;2023-04-01T14:07:17;93401.72;;;14.13;41.54
45941;BME280;31858;46.008;8.978;2023-04-01T14:17:31;93391.66;;;14.17;39.54
45941;BME280;31858;46.008;8.978;2023-04-01T14:27:45;93383.88;;;14.23;37.84
45941;BME280;31858;46.008;8.978;2023-04-01T14:38:08;93379.13;;;14.14;34.95
45941;BME280;31858;46.008;8.978;2023-04-01T14:48:25;93370.09;;;14.08;38.30
45941;BME280;31858;46.008;8.978;2023-04-01T14:58:41;93362.66;;;13.99;40.61
45941;BME280;31858;46.008;8.978;2023-04-01T15:08:50;93368.94;;;13.93;37.29
45941;BME280;31858;46.008;8.978;2023-04-01T15:19:04;93346.34;;;13.78;38.59
45941;BME280;31858;46.008;8.978;2023-04-01T15:29:25;93353.22;;;13.79;37.20
45941;BME280;31858;46.008;8.978;2023-04-01T15:39:38;93347.84;;;13.79;39.87
45941;BME280;31858;46.008;8.978;2023-04-01T15:49:49;93337.66;;;14.19;44.23
45941;BME280;31858;46.008;8.978;2023-04-01T16:10:46;93321.28;;;14.58;45.58
45941;BME280;31858;46.008;8.978;2023-04-01T16:20:53;93311.28;;;15.39;40.40
45941;BME280;31858;46.008;8.978;2023-04-01T16:31:00;93318.94;;;15.87;41.54
45941;BME280;31858;46.008;8.978;2023-04-01T16:41:11;93321.78;;;16.06;39.90
45941;BME280;31858;46.008;8.978;2023-04-01T16:51:18;93317.78;;;16.10;39.51
45941;BME280;31858;46.008;8.978;2023-04-01T17:01:21;93321.41;;;15.94;41.14
45941;BME280;31858;46.008;8.978;2023-04-01T17:11:30;93326.78;;;15.82;40.85
45941;BME280;31858;46.008;8.978;2023-04-01T17:21:47;93320.91;;;15.61;39.10
45941;BME280;31858;46.008;8.978;2023-04-01T17:32:02;93327.50;;;15.35;37.54
45941;BME280;31858;46.008;8.978;2023-04-01T17:42:10;93331.22;;;14.87;37.61
45941;BME280;31858;46.008;8.978;2023-04-01T17:52:23;93340.34;;;14.48;40.36
45941;BME280;31858;46.008;8.978;2023-04-01T18:02:31;93340.47;;;13.99;38.47
45941;BME280;31858;46.008;8.978;2023-04-01T18:12:45;93346.78;;;13.60;39.79
45941;BME280;31858;46.008;8.978;2023-04-01T18:22:57;93356.63;;;13.30;40.52
45941;BME280;31858;46.008;8.978;2023-04-01T18:33:04;93353.34;;;12.87;41.10
45941;BME280;31858;46.008;8.978;2023-04-01T18:43:14;93361.13;;;12.61;42.67
45941;BME280;31858;46.008;8.978;2023-04-01T18:53:23;93371.53;;;12.56;38.69
45941;BME280;31858;46.008;8.978;2023-04-01T19:03:34;93372.06;;;12.67;37.37
45941;BME280;31858;46.008;8.978;2023-04-01T19:13:48;93386.31;;;12.60;37.04
45941;BME280;31858;46.008;8.978;2023-04-01T19:24:13;93391.31;;;12.38;37.65
45941;BME280;31858;46.008;8.978;2023-04-01T19:34:27;93390.47;;;12.22;36.29
45941;BME280;31858;46.008;8.978;2023-04-01T19:44:39;93405.28;;;12.26;36.08
45941;BME280;31858;46.008;8.978;2023-04-01T19:54:49;93411.78;;;12.25;36.76
45941;BME280;31858;46.008;8.978;2023-04-01T20:04:55;93425.31;;;12.15;37.06
45941;BME280;31858;46.008;8.978;2023-04-01T20:15:00;93423.22;;;12.02;35.71
45941;BME280;31858;46.008;8.978;2023-04-01T20:25:11;93440.34;;;12.05;35.80
45941;BME280;31858;46.008;8.978;2023-04-01T20:35:25;93441.91;;;11.75;34.33
45941;BME280;31858;46.008;8.978;2023-04-01T20:45:38;93454.09;;;11.76;36.51
45941;BME280;31858;46.008;8.978;2023-04-01T20:56:09;93459.31;;;11.60;36.36
45941;BME280;31858;46.008;8.978;2023-04-01T21:16:44;93465.34;;;11.64;34.65
45941;BME280;31858;46.008;8.978;2023-04-01T21:26:52;93467.72;;;11.59;34.28
45941;BME280;31858;46.008;8.978;2023-04-01T21:37:19;93467.31;;;11.60;35.73
45941;BME280;31858;46.008;8.978;2023-04-01T21:47:55;93467.75;;;11.28;35.19
45941;BME280;31858;46.008;8.978;2023-04-01T21:58:22;93471.63;;;11.24;35.12
45941;BME280;31858;46.008;8.978;2023-04-01T22:08:51;93479.31;;;11.18;34.54
45941;BME280;31858;46.008;8.978;2023-04-01T22:19:05;93478.94;;;11.16;36.94
45941;BME280;31858;46.008;8.978;2023-04-01T22:29:17;93482.66;;;10.92;35.92
45941;BME280;31858;46.008;8.978;2023-04-01T22:39:36;93470.25;;;11.12;35.28
45941;BME280;31858;46.008;8.978;2023-04-01T22:49:44;93478.59;;;11.14;34.88
45941;BME280;31858;46.008;8.978;2023-04-01T22:59:52;93484.59;;;11.22;34.57
45941;BME280;31858;46.008;8.978;2023-04-01T23:09:58;93474.84;;;11.08;34.98
45941;BME280;31858;46.008;8.978;2023-04-01T23:20:12;93491.28;;;11.03;35.52
45941;BME280;31858;46.008;8.978;2023-04-01T23:30:50;93492.50;;;10.98;35.35
45941;BME280;31858;46.008;8.978;2023-04-01T23:40:54;93491.38;;;10.96;36.12
45941;BME280;31858;46.008;8.978;2023-04-01T23:50:56;93493.41;;;10.85;36.21
